createdAt,value
2018-05-27T00:00:30.961Z,23.00
2018-05-27T00:01:03.446Z,23.00
2018-05-27T00:01:35.164Z,23.00
2018-05-27T00:02:07.731Z,23.00
2018-05-27T00:02:40.230Z,23.00
2018-05-27T00:03:11.980Z,23.00
2018-05-27T00:03:43.700Z,23.00
2018-05-27T00:04:15.423Z,23.00
2018-05-27T00:04:47.150Z,23.00
2018-05-27T00:05:19.663Z,23.00
2018-05-27T00:05:51.373Z,23.00
2018-05-27T00:06:23.874Z,23.00
2018-05-27T00:06:55.609Z,23.00
2018-05-27T00:07:27.326Z,23.00
2018-05-27T00:07:59.074Z,23.00
2018-05-27T00:08:30.809Z,23.00
2018-05-27T00:09:03.296Z,23.00
2018-05-27T00:09:35.020Z,23.00
2018-05-27T00:10:06.763Z,23.10
2018-05-27T00:10:39.256Z,23.00
2018-05-27T00:11:10.993Z,23.00
2018-05-27T00:11:42.736Z,23.00
2018-05-27T00:12:14.443Z,23.00
2018-05-27T00:12:46.208Z,23.00
2018-05-27T00:13:17.974Z,23.00
2018-05-27T00:13:49.682Z,23.00
2018-05-27T00:14:22.170Z,23.00
2018-05-27T00:14:53.901Z,23.00
2018-05-27T00:15:26.401Z,23.00
2018-05-27T00:15:58.136Z,22.90
2018-05-27T00:16:29.850Z,23.00
2018-05-27T00:17:01.592Z,23.00
2018-05-27T00:17:33.330Z,23.00
2018-05-27T00:18:05.815Z,23.00
2018-05-27T00:18:37.542Z,23.00
2018-05-27T00:19:09.283Z,23.00
2018-05-27T00:19:41.774Z,23.00
2018-05-27T00:20:13.492Z,23.00
2018-05-27T00:20:45.244Z,23.00
2018-05-27T00:21:17.719Z,23.00
2018-05-27T00:21:49.443Z,23.00
2018-05-27T00:22:21.171Z,23.00
2018-05-27T00:22:53.679Z,23.00
2018-05-27T00:23:25.399Z,23.00
2018-05-27T00:23:57.138Z,23.00
2018-05-27T00:24:29.639Z,23.00
2018-05-27T00:25:01.370Z,23.00
2018-05-27T00:25:33.091Z,23.00
2018-05-27T00:26:04.839Z,23.00
2018-05-27T00:26:36.550Z,23.00
2018-05-27T00:27:08.324Z,23.00
2018-05-27T00:27:40.048Z,23.00
2018-05-27T00:28:12.560Z,23.00
2018-05-27T00:28:44.271Z,23.00
2018-05-27T00:29:15.985Z,23.00
2018-05-27T00:29:47.763Z,23.00
2018-05-27T00:30:20.237Z,23.00
2018-05-27T00:30:51.962Z,23.00
2018-05-27T00:31:24.465Z,23.00
2018-05-27T00:31:56.212Z,23.00
2018-05-27T00:32:27.934Z,23.00
2018-05-27T00:32:59.677Z,23.00
2018-05-27T00:33:31.418Z,23.00
2018-05-27T00:34:03.145Z,23.00
2018-05-27T00:34:35.650Z,23.00
2018-05-27T00:35:07.422Z,22.90
2018-05-27T00:35:39.169Z,23.00
2018-05-27T00:36:10.885Z,22.90
2018-05-27T00:36:42.601Z,22.90
2018-05-27T00:37:14.331Z,23.00
2018-05-27T00:37:46.062Z,23.00
2018-05-27T00:38:18.541Z,23.00
2018-05-27T00:38:50.287Z,23.00
2018-05-27T00:39:22.746Z,23.00
2018-05-27T00:39:54.465Z,23.00
2018-05-27T00:40:26.192Z,23.00
2018-05-27T00:40:57.921Z,23.00
2018-05-27T00:41:29.641Z,22.90
2018-05-27T00:42:01.380Z,23.00
2018-05-27T00:42:33.099Z,22.90
2018-05-27T00:43:05.584Z,22.90
2018-05-27T00:43:37.327Z,22.90
2018-05-27T00:44:09.051Z,22.90
2018-05-27T00:44:41.538Z,22.90
2018-05-27T00:45:13.261Z,22.90
2018-05-27T00:45:44.983Z,22.90
2018-05-27T00:46:16.703Z,22.90
2018-05-27T00:46:48.431Z,22.90
2018-05-27T00:47:20.142Z,22.90
2018-05-27T00:47:51.874Z,23.00
2018-05-27T00:48:23.611Z,23.00
2018-05-27T00:48:55.326Z,23.00
2018-05-27T00:49:27.050Z,23.00
2018-05-27T00:49:58.854Z,23.00
2018-05-27T00:50:30.514Z,23.00
2018-05-27T00:51:02.237Z,23.00
2018-05-27T00:51:34.735Z,23.00
2018-05-27T00:52:06.481Z,23.00
2018-05-27T00:52:38.205Z,22.90
2018-05-27T00:53:09.989Z,23.00
2018-05-27T00:53:42.570Z,22.90
2018-05-27T00:54:14.320Z,22.90
2018-05-27T00:54:46.028Z,22.90
2018-05-27T00:55:17.770Z,22.90
2018-05-27T00:55:49.491Z,23.00
2018-05-27T00:56:21.219Z,23.00
2018-05-27T00:56:53.714Z,23.00
2018-05-27T00:57:25.436Z,23.00
2018-05-27T00:57:57.166Z,23.00
2018-05-27T00:58:29.697Z,23.10
2018-05-27T00:59:01.430Z,23.10
2018-05-27T00:59:33.227Z,23.10
2018-05-27T01:00:04.902Z,23.00
2018-05-27T01:00:36.626Z,23.00
2018-05-27T01:01:08.369Z,23.00
2018-05-27T01:01:40.095Z,23.00
2018-05-27T01:02:12.599Z,23.00
2018-05-27T01:02:44.322Z,22.90
2018-05-27T01:03:16.127Z,23.00
2018-05-27T01:03:47.868Z,23.00
2018-05-27T01:04:19.605Z,23.00
2018-05-27T01:04:51.353Z,23.00
2018-05-27T01:05:23.077Z,22.90
2018-05-27T01:05:54.808Z,22.90
2018-05-27T01:06:26.529Z,22.90
2018-05-27T01:06:58.267Z,23.00
2018-05-27T01:07:30.009Z,23.00
2018-05-27T01:08:02.529Z,23.00
2018-05-27T01:08:34.258Z,23.00
2018-05-27T01:09:05.994Z,23.00
2018-05-27T01:09:37.711Z,23.00
2018-05-27T01:10:09.434Z,22.90
2018-05-27T01:10:41.931Z,22.90
2018-05-27T01:11:13.662Z,22.90
2018-05-27T01:11:45.414Z,22.90
2018-05-27T01:12:17.143Z,23.00
2018-05-27T01:12:48.882Z,23.00
2018-05-27T01:13:21.375Z,23.00
2018-05-27T01:13:53.111Z,23.00
2018-05-27T01:14:24.829Z,23.00
2018-05-27T01:14:57.313Z,23.00
2018-05-27T01:15:29.046Z,23.00
2018-05-27T01:16:00.767Z,23.00
2018-05-27T01:16:33.268Z,23.00
2018-05-27T01:17:04.988Z,23.00
2018-05-27T01:17:36.711Z,23.00
2018-05-27T01:18:08.457Z,23.10
2018-05-27T01:18:40.235Z,23.10
2018-05-27T01:19:12.729Z,23.10
2018-05-27T01:19:44.490Z,23.10
2018-05-27T01:20:16.223Z,23.10
2018-05-27T01:20:47.963Z,23.10
2018-05-27T01:21:19.691Z,23.10
2018-05-27T01:21:51.425Z,23.10
2018-05-27T01:22:23.145Z,23.20
2018-05-27T01:22:55.684Z,23.10
2018-05-27T01:23:27.385Z,23.10
2018-05-27T01:23:59.146Z,23.10
2018-05-27T01:24:30.889Z,23.10
2018-05-27T01:25:02.609Z,23.10
2018-05-27T01:25:34.327Z,23.10
2018-05-27T01:26:06.825Z,23.10
2018-05-27T01:26:38.549Z,23.20
2018-05-27T01:27:10.261Z,23.10
2018-05-27T01:27:41.993Z,23.10
2018-05-27T01:28:13.711Z,23.00
2018-05-27T01:28:45.425Z,23.00
2018-05-27T01:29:17.153Z,23.00
2018-05-27T01:29:49.672Z,23.00
2018-05-27T01:30:21.402Z,23.00
2018-05-27T01:30:53.123Z,22.90
2018-05-27T01:31:24.852Z,22.90
2018-05-27T01:31:57.406Z,22.90
2018-05-27T01:32:29.090Z,22.90
2018-05-27T01:33:00.807Z,22.90
2018-05-27T01:33:32.533Z,23.00
2018-05-27T01:34:04.263Z,23.00
2018-05-27T01:34:35.986Z,23.00
2018-05-27T01:35:07.706Z,23.00
2018-05-27T01:35:39.437Z,23.00
2018-05-27T01:36:11.161Z,22.90
2018-05-27T01:36:43.648Z,22.90
2018-05-27T01:37:15.383Z,22.90
2018-05-27T01:37:47.883Z,22.90
2018-05-27T01:38:19.591Z,22.90
2018-05-27T01:38:51.305Z,22.90
2018-05-27T01:39:23.815Z,22.90
2018-05-27T01:39:55.589Z,22.90
2018-05-27T01:40:27.306Z,22.90
2018-05-27T01:40:59.040Z,22.90
2018-05-27T01:41:30.795Z,22.90
2018-05-27T01:42:02.510Z,22.90
2018-05-27T01:42:34.255Z,22.90
2018-05-27T01:43:06.744Z,22.90
2018-05-27T01:43:38.467Z,22.90
2018-05-27T01:44:10.235Z,22.90
2018-05-27T01:44:41.976Z,22.90
2018-05-27T01:45:13.693Z,22.90
2018-05-27T01:45:45.427Z,22.80
2018-05-27T01:46:17.919Z,22.80
2018-05-27T01:46:49.678Z,22.80
2018-05-27T01:47:21.412Z,22.80
2018-05-27T01:47:53.137Z,22.80
2018-05-27T01:48:25.609Z,22.80
2018-05-27T01:48:57.343Z,22.90
2018-05-27T01:49:29.069Z,22.80
2018-05-27T01:50:01.571Z,22.90
2018-05-27T01:50:33.295Z,22.90
2018-05-27T01:51:05.014Z,22.90
2018-05-27T01:51:37.508Z,22.90
2018-05-27T01:52:09.249Z,22.90
2018-05-27T01:52:41.722Z,22.90
2018-05-27T01:53:13.439Z,22.90
2018-05-27T01:53:45.930Z,22.90
2018-05-27T01:54:17.710Z,22.90
2018-05-27T01:54:49.447Z,22.90
2018-05-27T01:55:21.190Z,22.90
2018-05-27T01:55:52.927Z,22.90
2018-05-27T01:56:24.653Z,22.80
2018-05-27T01:56:56.374Z,22.80
2018-05-27T01:57:28.101Z,22.90
2018-05-27T01:58:00.605Z,22.90
2018-05-27T01:58:32.340Z,22.90
2018-05-27T01:59:04.056Z,22.90
2018-05-27T01:59:36.576Z,22.90
2018-05-27T02:00:08.277Z,22.90
2018-05-27T02:00:39.994Z,22.90
2018-05-27T02:01:12.483Z,22.90
2018-05-27T02:01:44.216Z,22.90
2018-05-27T02:02:16.706Z,22.90
2018-05-27T02:02:48.431Z,22.80
2018-05-27T02:03:20.146Z,22.90
2018-05-27T02:03:51.866Z,22.80
2018-05-27T02:04:23.647Z,22.80
2018-05-27T02:04:56.150Z,22.90
2018-05-27T02:05:27.873Z,22.90
2018-05-27T02:05:59.614Z,22.80
2018-05-27T02:06:31.350Z,22.80
2018-05-27T02:07:03.081Z,22.80
2018-05-27T02:07:35.640Z,22.80
2018-05-27T02:08:08.124Z,22.80
2018-05-27T02:08:40.619Z,22.80
2018-05-27T02:09:12.343Z,22.80
2018-05-27T02:09:44.051Z,22.80
2018-05-27T02:10:16.561Z,22.80
2018-05-27T02:10:48.298Z,22.80
2018-05-27T02:11:20.035Z,22.60
2018-05-27T02:11:51.763Z,22.80
2018-05-27T02:12:23.486Z,22.80
2018-05-27T02:12:56.038Z,22.80
2018-05-27T02:13:27.767Z,22.80
2018-05-27T02:13:59.497Z,22.80
2018-05-27T02:14:31.223Z,22.80
2018-05-27T02:15:02.971Z,22.80
2018-05-27T02:15:34.687Z,22.80
2018-05-27T02:16:06.410Z,22.80
2018-05-27T02:16:38.134Z,22.80
2018-05-27T02:17:09.862Z,22.80
2018-05-27T02:17:41.608Z,22.80
2018-05-27T02:18:13.311Z,22.80
2018-05-27T02:18:45.800Z,22.80
2018-05-27T02:19:17.519Z,22.80
2018-05-27T02:19:49.234Z,22.90
2018-05-27T02:20:20.954Z,22.80
2018-05-27T02:20:52.717Z,22.80
2018-05-27T02:21:24.422Z,22.80
2018-05-27T02:21:56.154Z,22.80
2018-05-27T02:22:27.889Z,22.80
2018-05-27T02:22:59.641Z,22.80
2018-05-27T02:23:32.103Z,22.80
2018-05-27T02:24:03.910Z,22.80
2018-05-27T02:24:35.669Z,22.80
2018-05-27T02:25:08.178Z,22.80
2018-05-27T02:25:39.900Z,22.80
2018-05-27T02:26:11.636Z,22.80
2018-05-27T02:26:43.360Z,22.80
2018-05-27T02:27:15.863Z,22.80
2018-05-27T02:27:47.581Z,22.80
2018-05-27T02:28:19.298Z,22.80
2018-05-27T02:28:51.789Z,22.80
2018-05-27T02:29:23.512Z,22.80
2018-05-27T02:29:56.054Z,22.80
2018-05-27T02:30:27.819Z,22.80
2018-05-27T02:31:00.341Z,22.80
2018-05-27T02:31:32.037Z,22.80
2018-05-27T02:32:03.753Z,22.80
2018-05-27T02:32:35.510Z,22.80
2018-05-27T02:33:07.229Z,22.90
2018-05-27T02:33:38.962Z,22.80
2018-05-27T02:34:10.712Z,22.80
2018-05-27T02:34:42.466Z,22.80
2018-05-27T02:35:14.190Z,22.80
2018-05-27T02:35:45.949Z,22.80
2018-05-27T02:36:17.653Z,22.80
2018-05-27T02:36:49.366Z,22.80
2018-05-27T02:37:21.871Z,22.80
2018-05-27T02:37:53.586Z,22.80
2018-05-27T02:38:25.310Z,22.80
2018-05-27T02:38:57.059Z,22.80
2018-05-27T02:39:28.772Z,22.80
2018-05-27T02:40:00.498Z,22.80
2018-05-27T02:40:32.258Z,22.80
2018-05-27T02:41:03.963Z,22.80
2018-05-27T02:41:35.767Z,22.90
2018-05-27T02:42:07.495Z,22.80
2018-05-27T02:42:39.223Z,22.90
2018-05-27T02:43:10.946Z,22.80
2018-05-27T02:43:42.678Z,22.80
2018-05-27T02:44:14.399Z,22.80
2018-05-27T02:44:46.189Z,22.80
2018-05-27T02:45:17.920Z,22.80
2018-05-27T02:45:49.655Z,22.80
2018-05-27T02:46:21.397Z,22.80
2018-05-27T02:46:53.138Z,22.80
2018-05-27T02:47:25.642Z,22.80
2018-05-27T02:47:57.369Z,22.80
2018-05-27T02:48:29.099Z,22.80
2018-05-27T02:49:00.846Z,22.80
2018-05-27T02:49:32.563Z,22.80
2018-05-27T02:50:05.073Z,22.80
2018-05-27T02:50:36.812Z,22.80
2018-05-27T02:51:08.585Z,22.80
2018-05-27T02:51:40.333Z,22.80
2018-05-27T02:52:12.150Z,22.80
2018-05-27T02:52:43.809Z,22.80
2018-05-27T02:53:15.540Z,22.80
2018-05-27T02:53:47.262Z,22.80
2018-05-27T02:54:18.993Z,22.80
2018-05-27T02:54:51.518Z,22.80
2018-05-27T02:55:23.245Z,22.80
2018-05-27T02:55:54.994Z,22.80
2018-05-27T02:56:26.744Z,22.80
2018-05-27T02:56:58.541Z,22.80
2018-05-27T02:57:30.280Z,22.80
2018-05-27T02:58:02.011Z,22.80
2018-05-27T02:58:34.510Z,22.80
2018-05-27T02:59:06.230Z,22.80
2018-05-27T02:59:37.952Z,22.80
2018-05-27T03:00:09.706Z,22.80
2018-05-27T03:00:41.398Z,22.80
2018-05-27T03:01:13.129Z,22.80
2018-05-27T03:01:44.887Z,22.80
2018-05-27T03:02:16.593Z,22.70
2018-05-27T03:02:48.317Z,22.70
2018-05-27T03:03:20.904Z,22.70
2018-05-27T03:03:52.635Z,22.70
2018-05-27T03:04:25.150Z,22.80
2018-05-27T03:04:56.905Z,22.80
2018-05-27T03:05:28.633Z,22.80
2018-05-27T03:06:00.421Z,22.80
2018-05-27T03:06:32.109Z,22.70
2018-05-27T03:07:03.855Z,22.70
2018-05-27T03:07:35.625Z,22.70
2018-05-27T03:08:07.323Z,22.70
2018-05-27T03:08:39.066Z,22.70
2018-05-27T03:09:10.821Z,22.70
2018-05-27T03:09:43.381Z,22.70
2018-05-27T03:10:15.114Z,22.70
2018-05-27T03:10:46.864Z,22.70
2018-05-27T03:11:18.596Z,22.70
2018-05-27T03:11:51.129Z,22.70
2018-05-27T03:12:22.869Z,22.70
2018-05-27T03:12:54.586Z,22.70
2018-05-27T03:13:26.319Z,22.70
2018-05-27T03:13:58.040Z,22.70
2018-05-27T03:14:30.533Z,22.70
2018-05-27T03:15:02.348Z,22.70
2018-05-27T03:15:34.818Z,22.70
2018-05-27T03:16:06.575Z,22.70
2018-05-27T03:16:38.297Z,22.70
2018-05-27T03:17:10.790Z,22.80
2018-05-27T03:17:42.543Z,22.80
2018-05-27T03:18:14.248Z,22.70
2018-05-27T03:18:45.966Z,22.70
2018-05-27T03:19:17.741Z,22.80
2018-05-27T03:19:50.230Z,22.80
2018-05-27T03:20:21.947Z,22.80
2018-05-27T03:20:53.699Z,22.80
2018-05-27T03:21:26.206Z,22.70
2018-05-27T03:21:57.932Z,22.70
2018-05-27T03:22:29.645Z,22.70
2018-05-27T03:23:01.397Z,22.70
2018-05-27T03:23:33.124Z,22.70
2018-05-27T03:24:05.620Z,22.70
2018-05-27T03:24:37.335Z,22.70
2018-05-27T03:25:09.108Z,22.70
2018-05-27T03:25:40.916Z,22.70
2018-05-27T03:26:13.401Z,22.70
2018-05-27T03:26:45.903Z,22.70
2018-05-27T03:27:17.623Z,22.70
2018-05-27T03:27:49.351Z,22.70
2018-05-27T03:28:21.143Z,22.70
2018-05-27T03:28:52.853Z,22.70
2018-05-27T03:29:24.676Z,22.70
2018-05-27T03:29:57.148Z,22.70
2018-05-27T03:30:28.876Z,22.70
2018-05-27T03:31:01.402Z,22.70
2018-05-27T03:31:33.919Z,22.70
2018-05-27T03:32:05.674Z,22.70
2018-05-27T03:32:37.371Z,22.70
2018-05-27T03:33:09.854Z,22.70
2018-05-27T03:33:41.580Z,22.70
2018-05-27T03:34:14.103Z,22.70
2018-05-27T03:34:45.904Z,22.70
2018-05-27T03:35:17.644Z,22.70
2018-05-27T03:35:50.137Z,22.70
2018-05-27T03:36:21.905Z,22.70
2018-05-27T03:36:53.622Z,22.70
2018-05-27T03:37:25.358Z,22.70
2018-05-27T03:37:57.143Z,22.60
2018-05-27T03:38:29.045Z,22.70
2018-05-27T03:39:00.874Z,22.60
2018-05-27T03:39:32.723Z,22.60
2018-05-27T03:40:04.783Z,22.70
2018-05-27T03:40:37.336Z,22.70
2018-05-27T03:41:09.075Z,22.70
2018-05-27T03:41:40.838Z,22.70
2018-05-27T03:42:13.307Z,22.70
2018-05-27T03:42:45.053Z,22.70
2018-05-27T03:43:16.782Z,22.70
2018-05-27T03:43:49.275Z,22.70
2018-05-27T03:44:20.987Z,22.70
2018-05-27T03:44:53.477Z,22.70
2018-05-27T03:45:25.205Z,22.70
2018-05-27T03:45:56.950Z,22.70
2018-05-27T03:46:28.663Z,22.70
2018-05-27T03:47:01.159Z,22.70
2018-05-27T03:47:32.886Z,22.60
2018-05-27T03:48:05.397Z,22.60
2018-05-27T03:48:37.104Z,22.60
2018-05-27T03:49:08.827Z,22.60
2018-05-27T03:49:41.327Z,22.60
2018-05-27T03:50:13.046Z,22.60
2018-05-27T03:50:44.763Z,22.60
2018-05-27T03:51:16.474Z,22.60
2018-05-27T03:51:48.203Z,22.60
2018-05-27T03:52:19.938Z,22.60
2018-05-27T03:52:51.712Z,22.60
2018-05-27T03:53:23.443Z,22.70
2018-05-27T03:53:55.161Z,22.70
2018-05-27T03:54:26.915Z,22.60
2018-05-27T03:54:58.646Z,22.70
2018-05-27T03:55:30.386Z,22.70
2018-05-27T03:56:02.128Z,22.70
2018-05-27T03:56:33.830Z,22.60
2018-05-27T03:57:05.564Z,22.60
2018-05-27T03:57:37.323Z,22.60
2018-05-27T03:58:09.017Z,22.60
2018-05-27T03:58:40.754Z,22.60
2018-05-27T03:59:12.529Z,22.60
2018-05-27T03:59:44.238Z,22.60
2018-05-27T04:00:16.725Z,22.70
2018-05-27T04:00:48.448Z,22.70
2018-05-27T04:01:20.164Z,22.70
2018-05-27T04:01:51.893Z,22.70
2018-05-27T04:02:23.661Z,22.70
2018-05-27T04:02:56.192Z,22.70
2018-05-27T04:03:27.913Z,22.70
2018-05-27T04:03:59.642Z,22.70
2018-05-27T04:04:31.378Z,22.70
2018-05-27T04:05:03.102Z,22.70
2018-05-27T04:05:35.629Z,22.70
2018-05-27T04:06:07.369Z,22.80
2018-05-27T04:06:39.106Z,22.70
2018-05-27T04:07:10.829Z,22.80
2018-05-27T04:07:42.565Z,22.70
2018-05-27T04:08:14.302Z,22.70
2018-05-27T04:08:46.029Z,22.70
2018-05-27T04:09:18.518Z,22.70
2018-05-27T04:09:50.251Z,22.70
2018-05-27T04:10:22.735Z,22.70
2018-05-27T04:10:54.487Z,22.70
2018-05-27T04:11:26.214Z,22.70
2018-05-27T04:11:57.948Z,22.70
2018-05-27T04:12:30.432Z,22.70
2018-05-27T04:13:02.161Z,22.70
2018-05-27T04:13:33.910Z,22.70
2018-05-27T04:14:05.623Z,22.70
2018-05-27T04:14:38.125Z,22.70
2018-05-27T04:15:09.849Z,22.70
2018-05-27T04:15:41.666Z,22.70
2018-05-27T04:16:13.362Z,22.70
2018-05-27T04:16:45.093Z,22.70
2018-05-27T04:17:16.837Z,22.70
2018-05-27T04:17:48.570Z,22.70
2018-05-27T04:18:20.294Z,22.70
2018-05-27T04:18:52.786Z,22.70
2018-05-27T04:19:24.526Z,22.70
2018-05-27T04:19:56.237Z,22.70
2018-05-27T04:20:27.976Z,22.70
2018-05-27T04:20:59.811Z,22.60
2018-05-27T04:21:31.534Z,22.60
2018-05-27T04:22:03.254Z,22.60
2018-05-27T04:22:34.975Z,22.60
2018-05-27T04:23:07.466Z,22.50
2018-05-27T04:23:39.186Z,22.60
2018-05-27T04:24:10.931Z,22.50
2018-05-27T04:24:42.662Z,22.50
2018-05-27T04:25:15.169Z,22.60
2018-05-27T04:25:46.912Z,22.60
2018-05-27T04:26:18.687Z,22.60
2018-05-27T04:26:50.461Z,22.60
2018-05-27T04:27:22.950Z,22.60
2018-05-27T04:27:54.687Z,22.60
2018-05-27T04:28:26.459Z,22.60
2018-05-27T04:28:58.922Z,22.60
2018-05-27T04:29:30.637Z,22.60
2018-05-27T04:30:02.382Z,22.60
2018-05-27T04:30:34.131Z,22.60
2018-05-27T04:31:05.865Z,22.60
2018-05-27T04:31:38.342Z,22.60
2018-05-27T04:32:10.101Z,22.60
2018-05-27T04:32:41.813Z,22.60
2018-05-27T04:33:13.534Z,22.70
2018-05-27T04:33:46.064Z,22.70
2018-05-27T04:34:17.762Z,22.70
2018-05-27T04:34:49.491Z,22.70
2018-05-27T04:35:21.984Z,22.70
2018-05-27T04:35:53.751Z,22.70
2018-05-27T04:36:25.649Z,22.70
2018-05-27T04:36:57.359Z,22.70
2018-05-27T04:37:29.079Z,22.70
2018-05-27T04:38:00.809Z,22.70
2018-05-27T04:38:32.532Z,22.70
2018-05-27T04:39:05.015Z,22.70
2018-05-27T04:39:36.738Z,22.70
2018-05-27T04:40:09.240Z,22.70
2018-05-27T04:40:40.961Z,22.70
2018-05-27T04:41:12.712Z,22.70
2018-05-27T04:41:44.446Z,22.70
2018-05-27T04:42:16.177Z,22.70
2018-05-27T04:42:47.974Z,22.70
2018-05-27T04:43:19.704Z,22.70
2018-05-27T04:43:51.436Z,22.70
2018-05-27T04:44:23.154Z,22.70
2018-05-27T04:44:54.897Z,22.70
2018-05-27T04:45:27.398Z,22.70
2018-05-27T04:45:59.131Z,22.70
2018-05-27T04:46:30.850Z,22.70
2018-05-27T04:47:02.628Z,22.80
2018-05-27T04:47:34.325Z,22.70
2018-05-27T04:48:06.815Z,22.70
2018-05-27T04:48:38.550Z,22.70
2018-05-27T04:49:10.261Z,22.70
2018-05-27T04:49:41.987Z,22.70
2018-05-27T04:50:13.711Z,22.70
2018-05-27T04:50:45.475Z,22.70
2018-05-27T04:51:17.264Z,22.70
2018-05-27T04:51:49.763Z,22.80
2018-05-27T04:52:21.504Z,22.80
2018-05-27T04:52:53.228Z,22.80
2018-05-27T04:53:24.943Z,22.80
2018-05-27T04:53:57.441Z,22.80
2018-05-27T04:54:29.183Z,22.80
2018-05-27T04:55:00.913Z,22.70
2018-05-27T04:55:32.684Z,22.80
2018-05-27T04:56:04.455Z,22.80
2018-05-27T04:56:36.162Z,22.80
2018-05-27T04:57:07.887Z,22.80
2018-05-27T04:57:39.649Z,22.80
2018-05-27T04:58:12.206Z,22.80
2018-05-27T04:58:43.926Z,22.80
2018-05-27T04:59:16.434Z,22.80
2018-05-27T04:59:48.161Z,22.80
2018-05-27T05:00:19.896Z,22.80
2018-05-27T05:00:51.636Z,22.80
2018-05-27T05:01:24.136Z,22.80
2018-05-27T05:01:55.865Z,22.80
2018-05-27T05:02:27.574Z,22.80
2018-05-27T05:03:00.092Z,22.80
2018-05-27T05:03:31.819Z,22.80
2018-05-27T05:04:03.594Z,22.80
2018-05-27T05:04:35.331Z,22.80
2018-05-27T05:05:07.054Z,22.80
2018-05-27T05:05:38.766Z,22.80
2018-05-27T05:06:11.279Z,22.90
2018-05-27T05:06:43.011Z,22.80
2018-05-27T05:07:14.745Z,22.80
2018-05-27T05:07:46.465Z,22.80
2018-05-27T05:08:18.187Z,22.80
2018-05-27T05:08:50.706Z,22.80
2018-05-27T05:09:22.440Z,22.80
2018-05-27T05:09:54.161Z,22.80
2018-05-27T05:10:25.903Z,22.80
2018-05-27T05:10:57.675Z,22.70
2018-05-27T05:11:29.383Z,22.70
2018-05-27T05:12:01.867Z,22.80
2018-05-27T05:12:33.595Z,22.80
2018-05-27T05:13:06.066Z,22.80
2018-05-27T05:13:37.792Z,22.80
2018-05-27T05:14:10.283Z,22.80
2018-05-27T05:14:42.015Z,22.80
2018-05-27T05:15:13.745Z,22.90
2018-05-27T05:15:46.245Z,22.80
2018-05-27T05:16:18.018Z,22.80
2018-05-27T05:16:49.755Z,22.80
2018-05-27T05:17:21.490Z,22.80
2018-05-27T05:17:53.214Z,22.80
2018-05-27T05:18:24.961Z,22.80
2018-05-27T05:18:56.694Z,22.80
2018-05-27T05:19:28.409Z,22.80
2018-05-27T05:20:00.904Z,22.90
2018-05-27T05:20:32.616Z,22.90
2018-05-27T05:21:05.120Z,23.00
2018-05-27T05:21:36.838Z,23.00
2018-05-27T05:22:08.709Z,23.00
2018-05-27T05:22:40.515Z,23.00
2018-05-27T05:23:13.002Z,23.00
2018-05-27T05:23:44.726Z,23.00
2018-05-27T05:24:17.281Z,23.00
2018-05-27T05:24:48.971Z,23.10
2018-05-27T05:25:20.705Z,23.10
2018-05-27T05:25:52.411Z,23.00
2018-05-27T05:26:24.949Z,23.00
2018-05-27T05:26:56.682Z,23.00
2018-05-27T05:27:28.509Z,23.00
2018-05-27T05:28:00.987Z,23.00
2018-05-27T05:28:32.714Z,23.00
2018-05-27T05:29:04.451Z,23.00
2018-05-27T05:29:36.189Z,23.00
2018-05-27T05:30:07.905Z,23.10
2018-05-27T05:30:40.404Z,23.00
2018-05-27T05:31:12.133Z,23.00
2018-05-27T05:31:43.877Z,23.00
2018-05-27T05:32:15.602Z,23.00
2018-05-27T05:32:48.101Z,23.00
2018-05-27T05:33:19.817Z,23.00
2018-05-27T05:33:51.541Z,23.00
2018-05-27T05:34:24.044Z,22.90
2018-05-27T05:34:55.774Z,22.90
2018-05-27T05:35:27.523Z,23.00
2018-05-27T05:35:59.252Z,23.00
2018-05-27T05:36:31.798Z,23.10
2018-05-27T05:37:03.526Z,23.00
2018-05-27T05:37:35.262Z,23.10
2018-05-27T05:38:07.022Z,23.10
2018-05-27T05:38:38.738Z,23.10
2018-05-27T05:39:10.492Z,23.20
2018-05-27T05:39:42.207Z,23.20
2018-05-27T05:40:13.936Z,23.20
2018-05-27T05:40:45.665Z,23.20
2018-05-27T05:41:18.175Z,23.20
2018-05-27T05:41:49.962Z,23.20
2018-05-27T05:42:21.655Z,23.20
2018-05-27T05:42:53.385Z,23.20
2018-05-27T05:43:25.156Z,23.20
2018-05-27T05:43:56.856Z,23.20
2018-05-27T05:44:29.343Z,23.20
2018-05-27T05:45:01.121Z,23.20
2018-05-27T05:45:32.843Z,23.10
2018-05-27T05:46:04.572Z,23.20
2018-05-27T05:46:36.427Z,23.20
2018-05-27T05:47:08.892Z,23.20
2018-05-27T05:47:40.665Z,23.20
2018-05-27T05:48:12.371Z,23.20
2018-05-27T05:48:44.105Z,23.20
2018-05-27T05:49:15.874Z,23.20
2018-05-27T05:49:47.565Z,23.20
2018-05-27T05:50:20.054Z,23.20
2018-05-27T05:50:51.781Z,23.20
2018-05-27T05:51:24.276Z,23.20
2018-05-27T05:51:55.998Z,23.20
2018-05-27T05:52:27.722Z,23.20
2018-05-27T05:53:00.230Z,23.20
2018-05-27T05:53:31.957Z,23.20
2018-05-27T05:54:03.682Z,23.30
2018-05-27T05:54:36.173Z,23.20
2018-05-27T05:55:07.902Z,23.20
2018-05-27T05:55:39.648Z,23.20
2018-05-27T05:56:11.363Z,23.20
2018-05-27T05:56:43.894Z,23.30
2018-05-27T05:57:15.615Z,23.30
2018-05-27T05:57:47.347Z,23.30
2018-05-27T05:58:19.094Z,23.30
2018-05-27T05:58:51.591Z,23.30
2018-05-27T05:59:23.287Z,23.30
2018-05-27T05:59:55.023Z,23.30
2018-05-27T06:00:27.528Z,23.30
2018-05-27T06:00:59.242Z,23.30
2018-05-27T06:01:30.977Z,23.40
2018-05-27T06:02:02.709Z,23.40
2018-05-27T06:02:35.199Z,23.40
2018-05-27T06:03:06.911Z,23.40
2018-05-27T06:03:39.465Z,23.40
2018-05-27T06:04:11.150Z,23.40
2018-05-27T06:04:42.878Z,23.40
2018-05-27T06:05:15.369Z,23.40
2018-05-27T06:05:47.111Z,23.40
2018-05-27T06:06:18.831Z,23.40
2018-05-27T06:06:50.555Z,23.40
2018-05-27T06:07:23.038Z,23.40
2018-05-27T06:07:54.757Z,23.40
2018-05-27T06:08:26.467Z,23.40
2018-05-27T06:08:58.215Z,23.40
2018-05-27T06:09:29.942Z,23.40
2018-05-27T06:10:01.759Z,23.40
2018-05-27T06:10:34.237Z,23.40
2018-05-27T06:11:06.012Z,23.40
2018-05-27T06:11:37.699Z,23.40
2018-05-27T06:12:09.429Z,23.40
2018-05-27T06:12:41.933Z,23.40
2018-05-27T06:13:13.659Z,23.40
2018-05-27T06:13:45.390Z,23.40
2018-05-27T06:14:17.877Z,23.40
2018-05-27T06:14:49.633Z,23.40
2018-05-27T06:15:21.337Z,23.40
2018-05-27T06:15:53.829Z,23.40
2018-05-27T06:16:25.593Z,23.40
2018-05-27T06:16:57.314Z,23.40
2018-05-27T06:17:29.046Z,23.40
2018-05-27T06:18:00.773Z,23.40
2018-05-27T06:18:33.292Z,23.40
2018-05-27T06:19:05.020Z,23.40
2018-05-27T06:19:36.784Z,23.40
2018-05-27T06:20:08.486Z,23.40
2018-05-27T06:20:40.210Z,23.40
2018-05-27T06:21:12.704Z,23.40
2018-05-27T06:21:44.429Z,23.40
2018-05-27T06:22:16.185Z,23.40
2018-05-27T06:22:48.007Z,23.40
2018-05-27T06:23:20.494Z,23.40
2018-05-27T06:23:52.213Z,23.40
2018-05-27T06:24:24.720Z,23.40
2018-05-27T06:24:56.443Z,23.40
2018-05-27T06:25:28.158Z,23.40
2018-05-27T06:26:00.683Z,23.50
2018-05-27T06:26:32.451Z,23.40
2018-05-27T06:27:04.202Z,23.50
2018-05-27T06:27:35.892Z,23.40
2018-05-27T06:28:07.653Z,23.50
2018-05-27T06:28:39.346Z,23.50
2018-05-27T06:29:11.845Z,23.40
2018-05-27T06:29:43.576Z,23.40
2018-05-27T06:30:15.292Z,23.40
2018-05-27T06:30:47.778Z,23.40
2018-05-27T06:31:19.510Z,23.40
2018-05-27T06:31:52.037Z,23.40
2018-05-27T06:32:23.758Z,23.40
2018-05-27T06:32:55.500Z,23.40
2018-05-27T06:33:27.240Z,23.40
2018-05-27T06:33:58.964Z,23.40
2018-05-27T06:34:30.687Z,23.40
2018-05-27T06:35:03.202Z,23.40
2018-05-27T06:35:34.936Z,23.40
2018-05-27T06:36:06.661Z,23.40
2018-05-27T06:36:38.387Z,23.40
2018-05-27T06:37:10.891Z,23.40
2018-05-27T06:37:42.622Z,23.40
2018-05-27T06:38:14.346Z,23.40
2018-05-27T06:38:46.129Z,23.30
2018-05-27T06:39:17.794Z,23.40
2018-05-27T06:39:49.516Z,23.40
2018-05-27T06:40:21.283Z,23.40
2018-05-27T06:40:52.982Z,23.40
2018-05-27T06:41:24.711Z,23.40
2018-05-27T06:41:56.484Z,23.40
2018-05-27T06:42:28.194Z,23.40
2018-05-27T06:42:59.943Z,23.40
2018-05-27T06:43:31.687Z,23.30
2018-05-27T06:44:04.187Z,23.40
2018-05-27T06:44:35.905Z,23.30
2018-05-27T06:45:07.662Z,23.30
2018-05-27T06:45:39.382Z,23.40
2018-05-27T06:46:11.104Z,23.40
2018-05-27T06:46:42.851Z,23.40
2018-05-27T06:47:14.595Z,23.40
2018-05-27T06:47:46.314Z,23.40
2018-05-27T06:48:18.056Z,23.40
2018-05-27T06:48:49.765Z,23.40
2018-05-27T06:49:21.497Z,23.50
2018-05-27T06:49:53.215Z,23.40
2018-05-27T06:50:25.745Z,23.40
2018-05-27T06:50:57.475Z,23.40